St Augustine, FL 40NM ENE of St Augustine, FL (41012)

Conditions for Thursday

Daily
Weekly
Monthly
Marine Data Graph
Ad Blocker Enabled

Marine & Boating Location Search

Enter a coastal zip code for marine weather.

General Information

Location: 30.042 North -80.534 West
Buoy Type: 3-meter discus buoy
Buoy Hull: 3DV13
Payload: AMPS payload
Owned by: NDBC
Windspeed: Measured by obtained from anemometer
Sea Surface: Measured by Intake
Note: See the notice on loss of funding from the Coastal Storms Program for this station:
http://www.nws.noaa.gov/om/notification/scn14-06buoy_staugustine_fl.htm
Station 41012 has been disestablished on 02/19/2014.


Weather and Wave Data

Time Temp Humidity Wind Dominant Wave Wind Wave Wave Swell Pressure
  Air
(°F)
Water
(°F)
  Dir Speed
(kts)
Speed
(mph)
Period
(sec)
Height
(ft)
Range
(ft)
Period
(sec)
Height
(ft)
Range
(ft)
Period
(sec)
Height
(ft)
Range
(ft)
Atmo.
(in)
Tend.
(in)
20:50 61 72 33 WSW 9.7 11.2 5 1.97 exactly 2.0 4 1.64 0.82 - 2.46 5 1.64 0.82 - 2.46 30.31 -0.01
21:50 62 72 29 West 13.6 15.7 5 1.97 exactly 2.0 5 1.64 0.82 - 2.46 9 1.64 0.82 - 2.46 30.31 -0.01
22:50 62 71 31 West 11.7 13.4 3 2.30 exactly 2.3 3 1.64 0.82 - 2.46 10 1.64 0.82 - 2.46 30.31 -
23:50 62 71 35 West 13.6 15.7 3 2.30 exactly 2.3 3 1.64 0.82 - 2.46 9 1.64 0.82 - 2.46 30.29 -0.01
00:50 62 71 39 West 15.6 17.9 4 2.62 exactly 2.6 4 1.64 0.82 - 2.46 10 1.64 0.82 - 2.46 30.28 -0.03
01:50 61 71 38 West 15.6 17.9 4 2.62 exactly 2.6 4 1.64 0.82 - 2.46 9 1.64 0.82 - 2.46 30.27 -0.04
02:50 62 71 38 West 15.6 17.9 4 2.62 exactly 2.6 4 3.28 2.46 - 4.10 10 1.64 0.82 - 2.46 30.27 -0.03
03:50 62 71 37 West 17.5 20.1 4 2.95 exactly 3.0 4 3.28 2.46 - 4.10 10 1.64 0.82 - 2.46 30.26 -0.02
04:50 62 72 41 West 17.5 20.1 4 3.28 exactly 3.3 4 3.28 2.46 - 4.10 10 1.64 0.82 - 2.46 30.23 -0.04
05:50 62 72 44 West 19.4 22.4 4 3.61 exactly 3.6 4 3.28 2.46 - 4.10 10 1.64 0.82 - 2.46 30.25 -0.02
06:50 62 72 49 West 19.4 22.4 5 3.61 exactly 3.6 5 3.28 2.46 - 4.10 10 1.64 0.82 - 2.46 30.25 -0.01
07:50 62 71 47 West 21.4 24.6 5 3.94 exactly 3.9 5 3.28 2.46 - 4.10 10 1.64 0.82 - 2.46 30.27 +0.04
08:50 63 71 45 West 19.4 22.4 5 4.27 exactly 4.3 5 4.92 4.10 - 5.74 9 1.64 0.82 - 2.46 30.28 +0.04
09:50 62 71 48 West 19.4 22.4 5 4.59 exactly 4.6 5 4.92 4.10 - 5.74 10 1.64 0.82 - 2.46 30.29 +0.04
10:50 63 71 51 West 17.5 20.1 5 4.27 exactly 4.3 5 4.92 4.10 - 5.74 - - - 30.30 +0.04
11:50 63 72 54 West 19.4 22.4 5 4.59 exactly 4.6 5 4.92 4.10 - 5.74 - - - 30.28 -
12:50 64 72 50 West 17.5 20.1 5 4.59 exactly 4.6 5 4.92 4.10 - 5.74 - - - 30.25 -0.04
13:50 65 72 48 West 17.5 20.1 5 3.94 exactly 3.9 5 3.28 2.46 - 4.10 - - - 30.24 -0.06
14:50 66 72 46 West 13.6 15.7 5 2.95 exactly 3.0 5 3.28 2.46 - 4.10 - - - 30.22 -0.07
15:50 67 72 42 West 13.6 15.7 5 2.95 exactly 3.0 5 3.28 2.46 - 4.10 - - - 30.21 -0.04
16:50 68 72 42 West 11.7 13.4 5 2.30 exactly 2.3 5 1.64 0.82 - 2.46 - - - 30.22 -0.02
17:50 69 72 41 West 11.7 13.4 4 1.97 exactly 2.0 4 1.64 0.82 - 2.46 - - - 30.23 +0.01
18:50 69 72 42 West 11.7 13.4 4 1.97 exactly 2.0 4 1.64 0.82 - 2.46 - - - 30.24 +0.03
19:50 69 72 40 WNW 13.6 15.7 3 1.97 exactly 2.0 3 1.64 0.82 - 2.46 - - - 30.25 +0.03
20:50 69 72 43 North 13.6 15.7 3 1.97 exactly 2.0 3 1.64 0.82 - 2.46 - - - 30.26 +0.03
21:50 68 72 41 North 13.6 15.7 4 1.97 exactly 2.0 4 1.64 0.82 - 2.46 - - - 30.26 +0.02
22:50 67 72 46 North 15.6 17.9 4 2.30 exactly 2.3 4 1.64 0.82 - 2.46 - - - 30.28 +0.03
23:50 67 72 47 NE 15.6 17.9 4 1.97 exactly 2.0 4 1.64 0.82 - 2.46 - - - 30.28 +0.02
00:50 67 72 39 NNE 11.7 13.4 4 2.30 exactly 2.3 4 1.64 0.82 - 2.46 - - - 30.28 +0.02
01:50 67 72 34 NE 11.7 13.4 4 2.30 exactly 2.3 4 1.64 0.82 - 2.46 - - - 30.28 -
02:50 67 72 29 NE 7.8 8.9 4 2.30 exactly 2.3 4 1.64 0.82 - 2.46 4 1.64 0.82 - 2.46 30.27 -
03:50 68 72 25 NE 5.8 6.7 4 2.30 exactly 2.3 3 1.64 0.82 - 2.46 4 1.64 0.82 - 2.46 30.27 -

Detailed Wave Spectra

Time Water Depth Wave Height Spectral Peak Period Average Wave Period Sampling Interval Wave Record
20:00 125 ft 2.26 ft 5.6 sec 4.5 sec 0.6 sec 2400 sec
21:00 125 ft 2.07 ft 5.3 sec 4.6 sec 0.6 sec 2400 sec
22:00 125 ft 2.00 ft 5.0 sec 4.0 sec 0.6 sec 2400 sec
23:00 125 ft 2.20 ft 2.9 sec 3.5 sec 0.6 sec 2400 sec
00:00 125 ft 2.33 ft 3.3 sec 3.6 sec 0.6 sec 2400 sec
01:00 125 ft 2.59 ft 3.7 sec 3.6 sec 0.6 sec 2400 sec
02:00 125 ft 2.59 ft 3.8 sec 3.8 sec 0.6 sec 2400 sec
03:00 125 ft 2.79 ft 4.2 sec 3.9 sec 0.6 sec 2400 sec
04:00 125 ft 2.95 ft 4.3 sec 3.8 sec 0.6 sec 2400 sec
05:00 125 ft 3.28 ft 4.2 sec 3.9 sec 0.6 sec 2400 sec
06:00 125 ft 3.48 ft 4.2 sec 3.9 sec 0.6 sec 2400 sec
07:00 125 ft 3.71 ft 4.5 sec 4.0 sec 0.6 sec 2400 sec
08:00 125 ft 3.90 ft 4.5 sec 3.9 sec 0.6 sec 2400 sec
09:00 125 ft 4.30 ft 4.5 sec 4.0 sec 0.6 sec 2400 sec
10:00 125 ft 4.53 ft 5.0 sec 4.3 sec 0.6 sec 2400 sec
11:00 125 ft 4.17 ft 5.0 sec 4.1 sec 0.6 sec 2400 sec
12:00 125 ft 4.56 ft 5.3 sec 4.2 sec 0.6 sec 2400 sec
13:00 125 ft 4.46 ft 5.0 sec 4.3 sec 0.6 sec 2400 sec
14:00 125 ft 3.81 ft 5.3 sec 4.3 sec 0.6 sec 2400 sec
15:00 125 ft 3.02 ft 5.0 sec 4.1 sec 0.6 sec 2400 sec
16:00 125 ft 2.92 ft 4.5 sec 4.0 sec 0.6 sec 2400 sec
17:00 125 ft 2.26 ft 4.5 sec 3.9 sec 0.6 sec 2400 sec
18:00 125 ft 2.00 ft 4.3 sec 3.7 sec 0.6 sec 2400 sec
19:00 125 ft 2.03 ft 3.7 sec 3.7 sec 0.6 sec 2400 sec
20:00 125 ft 1.80 ft 3.2 sec 3.4 sec 0.6 sec 2400 sec
21:00 125 ft 1.90 ft 3.1 sec 3.3 sec 0.6 sec 2400 sec
22:00 125 ft 1.94 ft 3.8 sec 3.3 sec 0.6 sec 2400 sec
23:00 125 ft 2.23 ft 3.7 sec 3.4 sec 0.6 sec 2400 sec
00:00 125 ft 2.07 ft 3.7 sec 3.4 sec 0.6 sec 2400 sec
01:00 125 ft 2.30 ft 3.8 sec 3.5 sec 0.6 sec 2400 sec
02:00 125 ft 2.23 ft 3.8 sec 3.6 sec 0.6 sec 2400 sec
03:00 125 ft 2.20 ft 4.2 sec 3.8 sec 0.6 sec 2400 sec